Ashville, New York
Current Conditions -  °F | °C
As of 1:55 PM on Tuesday 27 Jan 2015 (Local Time) from KJHW Reporting Station
Broken Clouds Broken Clouds  
Wind Chill:   Ceiling: 4900
Heat Index: 14°   Visibility: 10mi
Dew Point:   Wind: 9mph
Humidity: 79%   Direction: 350°N
Pressure: 29.9"   Gusts: NA
Location:  42.1°N, 79.38°W
Report Text: KJHW 271855Z 35008KT 10SM FEW012 SCT043 BKN049 M10/M13 A2990 RMK AO1
Loading
Personal Weather Stations






























Interactive Weather Map New forecast layout! Learn more

10-Day Weather Forecast

Advertisements
Track Severe Weather on mobile